Time;durP1;ratioP1;P1;durP2;ratioP2;P2;SDS_P1;SDS_P2;PMS_P1;PMS_P2;Temp;Humidity;BMP_temperature;BMP_pressure;BME280_temperature;BME280_humidity;BME280_pressure;Samples;Min_cycle;Max_cycle;Signal;HPM_P1;HPM_P2
2022/06/19 03:02:28;;;;;;;1.20;1.07;;;25.00;55.40;;;;;;5286202;22;20509;-72
2022/06/19 03:04:58;;;;;;;1.00;0.90;;;25.00;55.10;;;;;;5034858;28;20452;-71
2022/06/19 03:07:26;;;;;;;1.10;1.00;;;24.90;55.50;;;;;;5034469;28;20443;-71
2022/06/19 03:09:53;;;;;;;1.00;0.90;;;24.80;55.80;;;;;;5034769;28;20454;-72
2022/06/19 03:12:20;;;;;;;0.90;0.80;;;24.90;55.60;;;;;;5034550;28;20530;-72
2022/06/19 03:14:47;;;;;;;1.17;1.00;;;25.00;55.60;;;;;;5036171;28;20459;-71
2022/06/19 03:17:15;;;;;;;1.57;1.00;;;25.20;56.00;;;;;;5034280;28;20482;-72
2022/06/19 03:19:43;;;;;;;1.20;0.90;;;25.20;55.60;;;;;;5034561;28;20526;-72
2022/06/19 03:22:11;;;;;;;1.67;0.80;;;25.20;55.10;;;;;;5034418;28;20509;-72
2022/06/19 03:24:38;;;;;;;0.90;0.80;;;25.30;54.90;;;;;;5034431;28;20448;-72
2022/06/19 03:27:05;;;;;;;1.33;1.00;;;25.30;55.30;;;;;;5034433;28;20451;-72
2022/06/19 03:29:32;;;;;;;1.20;0.90;;;25.30;54.60;;;;;;5034420;28;20450;-71
2022/06/19 03:31:59;;;;;;;1.00;0.90;;;25.10;55.10;;;;;;5034586;28;20957;-72
2022/06/19 03:34:26;;;;;;;1.27;1.17;;;25.00;55.80;;;;;;5034275;28;20878;-72
2022/06/19 03:36:55;;;;;;;1.10;0.90;;;24.80;55.70;;;;;;5034240;28;20447;-71
2022/06/19 03:39:22;;;;;;;1.10;0.90;;;24.80;55.70;;;;;;5034231;28;20452;-72
2022/06/19 03:41:49;;;;;;;1.00;0.90;;;24.80;55.80;;;;;;5034114;28;20517;-72
2022/06/19 03:44:15;;;;;;;1.23;1.10;;;24.80;55.80;;;;;;5033910;28;20934;-72
2022/06/19 03:46:42;;;;;;;1.20;1.00;;;24.80;56.00;;;;;;5033281;28;20486;-71
2022/06/19 03:49:10;;;;;;;1.00;0.90;;;24.70;56.20;;;;;;5033960;28;20442;-72
2022/06/19 03:51:37;;;;;;;1.00;0.90;;;24.70;56.20;;;;;;5033832;28;20582;-72
2022/06/19 03:54:07;;;;;;;2.17;1.20;;;24.80;56.30;;;;;;5033932;28;20447;-72
2022/06/19 03:56:35;;;;;;;1.10;1.03;;;24.90;56.30;;;;;;5033944;28;20463;-72
2022/06/19 03:59:02;;;;;;;0.93;0.83;;;24.90;55.80;;;;;;5033863;28;20442;-72
2022/06/19 04:01:32;;;;;;;1.60;0.87;;;24.80;56.30;;;;;;5033560;28;20479;-72
2022/06/19 04:03:58;;;;;;;1.00;0.90;;;24.80;57.00;;;;;;5033847;28;20527;-72
2022/06/19 04:06:28;;;;;;;1.50;1.10;;;24.90;56.60;;;;;;5033719;28;20443;-72
2022/06/19 04:08:55;;;;;;;0.90;0.90;;;25.00;56.40;;;;;;5033646;28;20501;-72
2022/06/19 04:11:24;;;;;;;3.00;1.20;;;25.10;55.70;;;;;;5033541;28;20467;-71
2022/06/19 04:13:52;;;;;;;0.97;0.90;;;25.10;57.00;;;;;;5033624;28;20872;-72
2022/06/19 04:16:22;;;;;;;1.13;1.03;;;25.00;56.60;;;;;;5033541;28;20490;-72
2022/06/19 04:18:49;;;;;;;1.10;1.00;;;25.00;56.70;;;;;;5033551;28;20501;-72
2022/06/19 04:21:18;;;;;;;1.37;1.10;;;25.00;56.90;;;;;;5033449;28;20475;-72
2022/06/19 04:23:46;;;;;;;2.03;1.63;;;25.00;56.60;;;;;;5033491;28;20444;-71
2022/06/19 04:26:14;;;;;;;1.20;1.10;;;25.00;56.70;;;;;;5033182;28;20935;-72
2022/06/19 04:28:43;;;;;;;0.97;0.87;;;25.00;56.50;;;;;;5033471;28;20443;-72
2022/06/19 04:31:10;;;;;;;1.37;0.93;;;24.90;56.70;;;;;;5033223;28;20467;-71
2022/06/19 04:33:38;;;;;;;1.33;1.20;;;24.90;57.00;;;;;;5033277;28;20479;-72
2022/06/19 04:36:06;;;;;;;1.00;0.87;;;24.70;57.10;;;;;;5033345;28;20447;-72
2022/06/19 04:38:33;;;;;;;1.60;0.90;;;24.80;57.50;;;;;;5033294;28;20443;-72
2022/06/19 04:41:00;;;;;;;1.40;1.30;;;24.70;57.20;;;;;;5032914;28;20467;-71
2022/06/19 04:43:27;;;;;;;1.97;1.10;;;24.60;57.40;;;;;;5033494;28;20489;-72
2022/06/19 04:46:03;;;;;;;1.30;1.00;;;24.60;57.60;;;;;;5033242;28;20455;-71
2022/06/19 04:48:29;;;;;;;1.27;1.17;;;24.70;57.50;;;;;;5032988;28;20973;-72
2022/06/19 04:50:56;;;;;;;1.13;1.03;;;24.60;57.80;;;;;;5033182;28;20540;-71
2022/06/19 04:53:23;;;;;;;1.30;1.00;;;24.50;58.20;;;;;;5033168;28;20524;-72
2022/06/19 04:55:50;;;;;;;1.83;0.90;;;24.70;58.00;;;;;;5033175;28;20448;-72
2022/06/19 04:58:16;;;;;;;1.40;1.20;;;24.80;57.60;;;;;;5036469;28;20470;-71
2022/06/19 05:00:43;;;;;;;1.40;1.30;;;25.00;57.80;;;;;;5036939;28;20463;-73
2022/06/19 05:03:11;;;;;;;0.93;0.80;;;25.10;57.30;;;;;;5037174;28;20834;-72
2022/06/19 05:05:37;;;;;;;1.50;1.20;;;24.90;57.80;;;;;;5037086;28;20447;-72
2022/06/19 05:08:04;;;;;;;1.17;1.07;;;24.90;57.90;;;;;;5037013;28;20447;-72
2022/06/19 05:10:31;;;;;;;1.00;0.90;;;24.90;58.10;;;;;;5036903;28;20451;-72
2022/06/19 05:12:58;;;;;;;1.07;0.97;;;24.90;58.20;;;;;;5036835;28;20478;-73
2022/06/19 05:15:25;;;;;;;1.30;1.20;;;25.10;58.40;;;;;;5036874;28;20446;-72
2022/06/19 05:17:52;;;;;;;1.23;1.10;;;25.30;57.90;;;;;;5036883;28;20494;-72
2022/06/19 05:20:20;;;;;;;0.87;0.87;;;25.30;57.40;;;;;;5036785;28;20443;-72
2022/06/19 05:22:47;;;;;;;2.30;1.10;;;25.30;58.20;;;;;;5036669;28;20479;-72
2022/06/19 05:25:14;;;;;;;1.10;1.00;;;25.60;58.30;;;;;;5036721;28;20522;-72
2022/06/19 05:27:42;;;;;;;1.00;0.90;;;25.70;57.80;;;;;;5036728;28;20493;-72
2022/06/19 05:30:12;;;;;;;1.30;1.00;;;25.90;57.80;;;;;;5036609;28;20501;-71
2022/06/19 05:32:39;;;;;;;1.07;0.97;;;26.10;56.90;;;;;;5036130;28;20509;-71
2022/06/19 05:35:07;;;;;;;1.33;1.23;;;26.30;56.30;;;;;;5036494;28;20451;-72
2022/06/19 05:37:35;;;;;;;3.13;1.10;;;26.30;56.30;;;;;;5036201;28;20451;-72
2022/06/19 05:40:02;;;;;;;0.90;0.90;;;26.40;57.30;;;;;;5036111;28;20443;-72
2022/06/19 05:42:29;;;;;;;1.80;1.27;;;26.60;57.00;;;;;;5036327;28;20546;-72
2022/06/19 05:44:56;;;;;;;0.93;0.83;;;26.80;56.50;;;;;;5036043;28;21001;-72
2022/06/19 05:47:22;;;;;;;1.10;1.00;;;26.90;55.10;;;;;;5036049;28;20447;-72
2022/06/19 05:49:49;;;;;;;0.90;0.90;;;27.10;55.10;;;;;;5036283;28;20505;-72
2022/06/19 05:52:18;;;;;;;0.90;0.83;;;27.20;54.70;;;;;;5036027;28;20532;-71
2022/06/19 05:54:48;;;;;;;1.20;1.10;;;27.30;55.00;;;;;;5035860;28;20965;-72
2022/06/19 05:57:15;;;;;;;1.20;1.00;;;27.60;54.40;;;;;;5035803;28;20943;-71
2022/06/19 05:59:41;;;;;;;0.80;0.80;;;27.60;53.90;;;;;;5036103;28;20493;-71
2022/06/19 06:02:10;;;;;;;1.00;0.90;;;27.80;54.70;;;;;;5035679;28;20568;-71
2022/06/19 06:04:36;;;;;;;1.27;1.17;;;28.00;54.10;;;;;;5035718;28;20889;-71
2022/06/19 06:07:06;;;;;;;1.00;0.87;;;27.90;53.50;;;;;;5035944;28;20534;-71
2022/06/19 06:09:32;;;;;;;1.63;0.90;;;27.90;53.90;;;;;;5034984;28;20501;-71
2022/06/19 06:12:00;;;;;;;1.00;0.90;;;28.10;55.10;;;;;;5035720;28;20493;-71
2022/06/19 06:14:27;;;;;;;1.00;0.90;;;28.40;55.10;;;;;;5035784;28;20505;-71
2022/06/19 06:16:53;;;;;;;1.10;1.00;;;28.50;53.70;;;;;;5035415;28;20922;-71
2022/06/19 06:19:20;;;;;;;0.83;0.83;;;28.70;52.70;;;;;;5035704;28;20485;-70
2022/06/19 06:21:47;;;;;;;1.10;1.00;;;28.80;53.50;;;;;;5035648;28;20877;-71
2022/06/19 06:24:15;;;;;;;1.10;1.00;;;29.10;54.30;;;;;;5035270;28;21001;-70
2022/06/19 06:26:42;;;;;;;1.20;1.00;;;29.30;53.50;;;;;;5035551;28;20451;-71
2022/06/19 06:29:11;;;;;;;0.90;0.80;;;29.30;51.10;;;;;;5035499;28;20474;-71
2022/06/19 06:31:37;;;;;;;1.23;1.13;;;29.30;52.20;;;;;;5035428;28;20481;-70
2022/06/19 06:34:05;;;;;;;1.10;1.00;;;29.30;51.60;;;;;;5035053;28;20889;-70
2022/06/19 06:36:32;;;;;;;1.60;1.40;;;29.20;52.10;;;;;;5035364;28;20451;-70
2022/06/19 06:38:58;;;;;;;1.10;0.90;;;29.00;52.90;;;;;;5035312;28;20443;-70
2022/06/19 06:41:25;;;;;;;1.13;0.90;;;29.30;54.50;;;;;;5035224;28;20513;-71
2022/06/19 06:43:52;;;;;;;1.13;0.90;;;29.50;52.20;;;;;;5035357;28;20440;-76
2022/06/19 06:46:22;;;;;;;1.30;1.10;;;29.90;52.20;;;;;;5035581;28;20500;-73
2022/06/19 06:48:50;;;;;;;1.43;1.00;;;30.10;51.20;;;;;;5035234;28;20898;-73
2022/06/19 06:51:19;;;;;;;1.43;0.90;;;30.40;51.90;;;;;;5035086;28;20541;-73
2022/06/19 06:53:46;;;;;;;1.40;1.03;;;30.60;50.10;;;;;;5035199;28;20821;-73
2022/06/19 06:56:13;;;;;;;1.23;1.10;;;30.60;50.40;;;;;;5035161;28;20501;-74
2022/06/19 06:58:40;;;;;;;1.53;1.13;;;30.90;51.20;;;;;;5035134;28;20475;-73
2022/06/19 07:01:09;;;;;;;0.90;0.83;;;30.90;49.50;;;;;;5034901;28;20487;-74
2022/06/19 07:03:38;;;;;;;1.07;0.97;;;30.70;50.20;;;;;;5035008;28;20428;-73
2022/06/19 07:06:05;;;;;;;1.10;0.90;;;30.60;49.80;;;;;;5035042;28;20497;-73
2022/06/19 07:08:31;;;;;;;1.10;1.00;;;30.20;51.40;;;;;;5034865;28;20560;-73
2022/06/19 07:10:58;;;;;;;1.77;1.00;;;30.20;51.80;;;;;;5034698;28;20463;-73
2022/06/19 07:13:25;;;;;;;1.30;1.20;;;30.00;52.60;;;;;;5034688;28;20475;-73
2022/06/19 07:15:52;;;;;;;1.50;1.40;;;30.00;52.30;;;;;;5034729;28;20455;-73
2022/06/19 07:18:19;;;;;;;1.43;1.33;;;30.20;52.60;;;;;;5034737;28;20454;-74
2022/06/19 07:20:47;;;;;;;1.10;1.00;;;30.20;51.90;;;;;;5034270;28;20522;-73
2022/06/19 07:23:20;;;;;;;1.33;1.00;;;30.00;52.70;;;;;;5034531;28;20440;-73
2022/06/19 07:25:47;;;;;;;1.83;0.97;;;30.10;52.60;;;;;;5034298;28;20423;-73
2022/06/19 07:28:17;;;;;;;1.27;1.17;;;30.20;53.70;;;;;;5034459;28;20530;-73
2022/06/19 07:30:45;;;;;;;1.40;1.30;;;30.40;53.30;;;;;;5034390;28;20517;-74
2022/06/19 07:33:12;;;;;;;1.70;0.97;;;30.30;52.70;;;;;;5034309;28;20529;-74
2022/06/19 07:35:38;;;;;;;1.23;1.07;;;30.40;53.60;;;;;;5034336;28;20447;-73
2022/06/19 07:38:07;;;;;;;1.83;1.07;;;30.60;52.90;;;;;;5034339;28;20451;-73
2022/06/19 07:40:33;;;;;;;1.20;1.10;;;30.80;53.00;;;;;;5034165;28;20852;-73
2022/06/19 07:43:00;;;;;;;1.83;1.30;;;30.80;53.20;;;;;;5034412;28;20455;-73
2022/06/19 07:45:30;;;;;;;1.30;1.20;;;30.80;53.10;;;;;;5034226;28;20462;-74
2022/06/19 07:50:41;;;;;;;0.80;0.80;;;31.00;52.30;;;;;;5033852;28;20408;-74
2022/06/19 07:53:09;;;;;;;1.10;1.00;;;31.20;52.20;;;;;;5033925;28;20479;-73
2022/06/19 07:55:39;;;;;;;1.17;1.07;;;31.40;52.60;;;;;;5033723;28;20973;-73
2022/06/19 07:58:06;;;;;;;1.43;1.00;;;31.50;52.50;;;;;;5034006;28;20450;-73
2022/06/19 08:00:35;;;;;;;1.93;1.00;;;31.60;52.40;;;;;;5033813;28;20508;-73
2022/06/19 08:03:01;;;;;;;1.23;1.13;;;31.70;51.80;;;;;;5033445;28;20459;-73
2022/06/19 08:05:29;;;;;;;1.50;1.03;;;31.90;51.60;;;;;;5033821;28;20582;-73
2022/06/19 08:07:58;;;;;;;1.20;1.10;;;31.80;52.40;;;;;;5033757;28;20501;-73
2022/06/19 08:10:30;;;;;;;1.30;1.20;;;32.10;51.50;;;;;;5033447;28;20497;-74
2022/06/19 08:12:57;;;;;;;1.00;0.90;;;32.40;52.40;;;;;;5034208;28;20823;-73
2022/06/19 08:15:24;;;;;;;1.40;1.30;;;32.50;50.60;;;;;;5033683;28;20451;-73
2022/06/19 08:17:51;;;;;;;1.00;1.00;;;32.60;50.60;;;;;;5033434;28;21008;-74
2022/06/19 08:20:19;;;;;;;1.57;1.37;;;32.60;51.10;;;;;;5033235;28;20451;-74
2022/06/19 08:22:46;;;;;;;1.47;1.37;;;32.70;49.10;;;;;;5033490;28;20467;-74
2022/06/19 08:25:15;;;;;;;1.10;1.00;;;32.60;48.70;;;;;;5033441;28;20455;-74
2022/06/19 08:27:47;;;;;;;1.00;1.00;;;32.80;50.60;;;;;;5033321;28;20451;-74
2022/06/19 08:30:17;;;;;;;1.00;1.00;;;33.10;48.80;;;;;;5033609;28;20439;-74
2022/06/19 08:32:44;;;;;;;2.70;1.37;;;33.30;49.20;;;;;;5033361;28;20462;-74
2022/06/19 08:35:10;;;;;;;1.30;1.20;;;33.50;48.10;;;;;;5033623;28;20443;-74
2022/06/19 08:37:39;;;;;;;1.10;1.00;;;33.40;47.40;;;;;;5033465;28;20455;-74
2022/06/19 08:40:15;;;;;;;1.13;1.03;;;33.50;47.90;;;;;;5033638;28;20509;-75
2022/06/19 08:42:54;;;;;;;1.20;1.10;;;33.80;47.20;;;;;;5034405;28;20463;-75
2022/06/19 08:45:37;;;;;;;1.33;1.13;;;34.00;46.80;;;;;;5033157;28;20895;-74
2022/06/19 08:48:36;;;;;;;1.23;1.10;;;34.00;47.10;;;;;;5033615;28;20428;-74
2022/06/19 08:51:09;;;;;;;1.10;1.00;;;34.00;46.50;;;;;;5028680;28;20470;-74
2022/06/19 08:53:59;;;;;;;1.20;1.10;;;34.00;47.80;;;;;;5033586;28;20494;-74
2022/06/19 08:56:32;;;;;;;1.10;1.00;;;34.10;47.50;;;;;;5033350;28;20907;-74
2022/06/19 08:59:07;;;;;;;1.00;1.00;;;34.00;45.00;;;;;;5033377;28;20462;-75
2022/06/19 09:01:41;;;;;;;1.13;1.03;;;34.00;46.60;;;;;;5033504;28;20485;-74
2022/06/19 09:07:13;;;;;;;1.13;1.03;;;34.10;47.70;;;;;;4999798;28;20945;-74
2022/06/19 09:09:56;;;;;;;1.63;1.53;;;34.30;47.30;;;;;;5032775;28;20459;-74
2022/06/19 09:12:38;;;;;;;1.27;1.17;;;34.60;45.90;;;;;;5033202;28;20470;-74
2022/06/19 09:15:13;;;;;;;2.80;1.10;;;34.60;42.30;;;;;;5034826;28;20471;-74
2022/06/19 09:17:51;;;;;;;1.40;1.30;;;34.50;41.30;;;;;;5033499;28;20509;-74
2022/06/19 09:20:25;;;;;;;1.23;1.13;;;34.60;41.00;;;;;;5033175;28;20937;-74
2022/06/19 09:23:28;;;;;;;1.10;1.00;;;34.50;42.00;;;;;;5033184;28;20839;-74
2022/06/19 09:25:57;;;;;;;1.00;1.00;;;34.60;39.80;;;;;;5014204;28;20450;-74
2022/06/19 09:28:32;;;;;;;1.20;1.00;;;34.70;40.60;;;;;;5034219;28;20506;-74
2022/06/19 09:31:08;;;;;;;1.10;1.00;;;34.80;41.60;;;;;;5033011;28;20819;-74
2022/06/19 09:33:42;;;;;;;1.20;1.10;;;35.00;40.40;;;;;;5033091;28;20528;-74
2022/06/19 09:36:14;;;;;;;1.53;0.97;;;35.00;39.90;;;;;;5033107;28;20526;-74
2022/06/19 09:38:46;;;;;;;1.20;1.10;;;35.10;39.90;;;;;;5033015;28;20767;-74
2022/06/19 09:41:21;;;;;;;1.10;1.00;;;35.00;39.50;;;;;;5032962;28;20816;-73
2022/06/19 09:43:53;;;;;;;1.57;1.10;;;35.00;38.90;;;;;;5033500;28;20894;-74
2022/06/19 09:46:24;;;;;;;1.30;1.20;;;35.00;38.50;;;;;;5036621;28;20522;-74
2022/06/19 09:48:57;;;;;;;1.13;1.03;;;35.00;39.40;;;;;;5036421;28;20432;-74
2022/06/19 09:51:30;;;;;;;1.20;1.10;;;35.10;39.70;;;;;;5036328;28;20521;-74
2022/06/19 09:54:04;;;;;;;1.13;0.90;;;35.00;38.60;;;;;;5036289;28;20513;-74
2022/06/19 09:56:40;;;;;;;1.20;1.10;;;35.00;39.90;;;;;;5036947;28;20423;-74
2022/06/19 09:59:14;;;;;;;1.20;1.10;;;35.20;39.20;;;;;;5036050;28;20964;-73
2022/06/19 10:01:45;;;;;;;0.97;0.93;;;35.50;39.50;;;;;;5036158;28;20529;-74
2022/06/19 10:04:17;;;;;;;1.37;1.10;;;35.50;37.70;;;;;;5036245;28;20458;-74
2022/06/19 10:06:48;;;;;;;1.30;1.20;;;35.40;37.80;;;;;;5035958;28;20807;-74
2022/06/19 10:09:24;;;;;;;1.10;0.80;;;35.50;38.30;;;;;;5036283;28;20427;-74
2022/06/19 10:11:55;;;;;;;1.20;0.97;;;35.50;36.70;;;;;;5036165;28;21064;-74
2022/06/19 10:14:28;;;;;;;1.00;0.90;;;35.40;37.70;;;;;;5036425;28;20574;-74
2022/06/19 10:17:00;;;;;;;1.00;0.90;;;35.50;37.70;;;;;;5036031;28;20431;-74
2022/06/19 10:19:34;;;;;;;1.10;1.00;;;35.40;37.20;;;;;;5036237;28;20431;-74
2022/06/19 10:22:15;;;;;;;0.93;0.83;;;35.50;37.00;;;;;;5036186;28;20471;-74
2022/06/19 10:24:52;;;;;;;1.23;1.13;;;35.50;37.90;;;;;;5036302;28;20423;-74
2022/06/19 10:27:25;;;;;;;1.33;1.23;;;35.60;37.90;;;;;;5036192;28;20496;-74
2022/06/19 10:30:01;;;;;;;1.30;1.20;;;35.60;37.60;;;;;;5035822;28;20443;-74
2022/06/19 10:32:43;;;;;;;1.83;1.10;;;35.50;37.50;;;;;;5035768;28;20470;-74
2022/06/19 10:35:19;;;;;;;1.67;1.20;;;35.30;37.90;;;;;;5035672;28;20467;-74
2022/06/19 10:37:56;;;;;;;1.37;1.10;;;35.20;38.10;;;;;;5035731;28;20426;-74
2022/06/19 10:40:33;;;;;;;1.30;1.10;;;35.20;38.10;;;;;;5035635;28;20462;-74
2022/06/19 10:43:11;;;;;;;1.40;1.20;;;35.30;38.40;;;;;;5035361;28;20427;-74
2022/06/19 10:45:44;;;;;;;1.40;1.30;;;35.60;40.50;;;;;;5035376;28;20480;-74
2022/06/19 10:48:29;;;;;;;1.00;1.00;;;35.90;39.20;;;;;;5035278;28;20431;-75
2022/06/19 10:51:17;;;;;;;1.10;1.00;;;36.00;38.50;;;;;;5035035;28;20977;-74
2022/06/19 10:54:24;;;;;;;1.03;0.93;;;36.00;37.80;;;;;;5035299;28;20430;-74
2022/06/19 10:57:00;;;;;;;1.07;1.00;;;36.10;36.20;;;;;;5035422;28;20431;-74
2022/06/19 10:59:27;;;;;;;1.10;0.90;;;36.00;35.70;;;;;;5035154;28;20513;-74
2022/06/19 11:04:51;;;;;;;1.00;0.90;;;35.70;35.00;;;;;;5035277;28;20418;-74
2022/06/19 11:07:19;;;;;;;1.03;0.93;;;35.70;35.20;;;;;;5035003;28;20442;-74
2022/06/19 11:09:48;;;;;;;0.87;0.83;;;35.70;35.80;;;;;;5034941;28;20450;-74
2022/06/19 11:12:21;;;;;;;1.93;0.90;;;35.90;35.80;;;;;;5034892;28;21017;-74
2022/06/19 11:14:51;;;;;;;1.37;0.90;;;36.10;37.10;;;;;;5034899;28;20458;-74
2022/06/19 11:17:30;;;;;;;1.10;1.00;;;36.30;34.90;;;;;;5035134;28;20502;-74
2022/06/19 11:19:58;;;;;;;1.30;1.20;;;36.50;35.00;;;;;;5034771;28;20434;-74
2022/06/19 11:22:34;;;;;;;0.97;0.97;;;36.30;35.10;;;;;;5034582;28;20463;-74
2022/06/19 11:25:27;;;;;;;1.07;0.90;;;36.40;35.00;;;;;;5034691;28;20434;-74
2022/06/19 11:27:56;;;;;;;3.27;1.00;;;36.50;34.70;;;;;;5034733;28;20431;-74
2022/06/19 11:30:28;;;;;;;0.93;0.87;;;36.40;34.90;;;;;;5034130;28;20799;-74
2022/06/19 11:32:55;;;;;;;1.47;0.97;;;36.50;34.60;;;;;;5034555;28;20541;-74
2022/06/19 11:35:24;;;;;;;1.70;0.90;;;36.40;35.60;;;;;;5034400;28;20611;-74
2022/06/19 11:37:56;;;;;;;0.93;0.80;;;36.60;34.80;;;;;;5034537;28;20482;-74
2022/06/19 11:40:31;;;;;;;1.30;1.10;;;36.80;36.40;;;;;;5034594;28;20439;-74
2022/06/19 11:42:59;;;;;;;2.30;1.00;;;36.90;35.90;;;;;;5034504;28;20496;-74
2022/06/19 11:45:29;;;;;;;1.30;1.20;;;36.80;34.40;;;;;;5033901;28;20852;-74
2022/06/19 11:48:10;;;;;;;2.30;0.90;;;36.80;35.10;;;;;;5034442;28;20442;-74
2022/06/19 11:50:47;;;;;;;1.20;0.90;;;37.00;35.20;;;;;;5034028;28;20435;-74
2022/06/19 11:53:17;;;;;;;1.20;1.10;;;37.10;34.90;;;;;;5034032;28;20481;-73
2022/06/19 11:55:46;;;;;;;1.20;0.90;;;36.80;34.40;;;;;;5033886;28;20536;-73
2022/06/19 11:58:21;;;;;;;0.87;0.87;;;36.60;36.60;;;;;;5033682;28;21027;-74
2022/06/19 12:01:01;;;;;;;1.37;1.00;;;36.40;33.90;;;;;;5033827;28;20485;-74
2022/06/19 12:03:32;;;;;;;1.53;1.30;;;36.30;35.80;;;;;;5033880;28;20485;-73
2022/06/19 12:06:03;;;;;;;1.00;1.00;;;36.60;36.90;;;;;;5033494;28;20431;-73
2022/06/19 12:08:34;;;;;;;0.97;0.90;;;36.90;35.50;;;;;;5033201;28;20856;-73
2022/06/19 12:11:03;;;;;;;1.43;0.93;;;37.00;36.90;;;;;;5033863;28;20524;-73
2022/06/19 12:13:32;;;;;;;0.93;0.90;;;37.20;33.80;;;;;;5033632;28;20438;-72
2022/06/19 12:16:03;;;;;;;1.00;0.90;;;37.20;35.00;;;;;;5033572;28;20549;-73
2022/06/19 12:18:32;;;;;;;1.17;1.07;;;37.30;34.90;;;;;;5033620;28;20446;-73
2022/06/19 12:21:03;;;;;;;1.17;0.90;;;37.20;35.40;;;;;;5033558;28;20466;-73
2022/06/19 12:23:37;;;;;;;1.10;1.00;;;37.40;35.60;;;;;;5033576;28;20431;-73
2022/06/19 12:26:08;;;;;;;0.80;0.80;;;37.40;35.00;;;;;;5033601;28;20510;-73
2022/06/19 12:28:38;;;;;;;1.33;1.00;;;37.50;34.30;;;;;;5033761;28;20430;-72
2022/06/19 12:31:08;;;;;;;0.80;0.80;;;37.50;33.90;;;;;;5033461;28;20557;-73
2022/06/19 12:33:40;;;;;;;1.47;0.93;;;37.70;34.90;;;;;;5033469;28;20504;-73
2022/06/19 12:36:13;;;;;;;1.03;0.93;;;37.80;34.30;;;;;;5033331;28;20463;-73
2022/06/19 12:38:41;;;;;;;1.00;0.90;;;37.70;34.10;;;;;;5033455;28;20442;-73
2022/06/19 12:41:28;;;;;;;1.10;1.00;;;37.70;34.80;;;;;;5033039;28;20916;-73
2022/06/19 12:44:06;;;;;;;1.30;0.70;;;37.90;33.70;;;;;;5033351;28;20497;-73
2022/06/19 12:46:42;;;;;;;0.93;0.83;;;38.00;34.00;;;;;;5033332;28;20435;-73
2022/06/19 12:49:23;;;;;;;1.20;1.10;;;38.00;34.70;;;;;;5033448;28;20426;-73
2022/06/19 12:51:55;;;;;;;1.20;0.90;;;38.00;32.90;;;;;;5033316;28;20470;-73
2022/06/19 12:54:48;;;;;;;0.90;0.90;;;37.70;33.70;;;;;;5033249;28;20441;-73
2022/06/19 12:57:35;;;;;;;1.20;1.10;;;37.80;36.00;;;;;;5033251;28;20432;-73
2022/06/19 13:00:23;;;;;;;2.70;1.00;;;37.90;33.90;;;;;;5033210;28;20664;-73
2022/06/19 13:03:26;;;;;;;1.20;1.10;;;38.10;33.00;;;;;;5032837;28;20492;-73
2022/06/19 13:06:03;;;;;;;1.30;1.13;;;38.20;33.90;;;;;;5033152;28;20443;-73
2022/06/19 13:08:40;;;;;;;1.63;1.07;;;38.40;33.00;;;;;;5033436;28;20833;-73
2022/06/19 13:11:20;;;;;;;1.03;0.93;;;38.50;32.50;;;;;;5033096;28;20463;-74
2022/06/19 13:14:15;;;;;;;1.67;1.10;;;38.60;32.80;;;;;;5033181;28;20431;-74
2022/06/19 13:16:53;;;;;;;1.23;1.10;;;38.50;32.20;;;;;;5033220;28;20493;-74
2022/06/19 13:19:33;;;;;;;0.80;0.80;;;38.40;33.40;;;;;;5036677;28;20484;-74
2022/06/19 13:22:10;;;;;;;1.07;0.93;;;38.40;33.30;;;;;;5036885;28;20469;-73
2022/06/19 13:24:47;;;;;;;1.10;1.00;;;38.40;33.00;;;;;;5036798;28;20485;-73
2022/06/19 13:27:28;;;;;;;1.00;0.90;;;38.50;33.60;;;;;;5036697;28;20441;-73
2022/06/19 13:30:06;;;;;;;1.20;1.10;;;38.80;33.30;;;;;;5036846;28;20492;-73
2022/06/19 13:32:38;;;;;;;1.20;1.10;;;39.10;33.60;;;;;;5036956;28;20266;-74
2022/06/19 13:35:18;;;;;;;1.10;1.00;;;39.20;33.30;;;;;;5036498;28;20622;-73
2022/06/19 13:37:55;;;;;;;0.80;0.80;;;39.20;32.30;;;;;;5036558;28;20196;-73
2022/06/19 13:40:32;;;;;;;0.98;0.88;;;39.40;33.50;;;;;;5036746;28;20195;-73
2022/06/19 13:43:18;;;;;;;0.98;0.88;;;39.50;32.40;;;;;;5036687;28;20241;-73
2022/06/19 13:45:57;;;;;;;1.25;1.15;;;39.30;31.60;;;;;;5034360;28;20290;-73
2022/06/19 13:48:28;;;;;;;3.60;0.90;;;39.20;32.20;;;;;;5036536;28;20192;-73
2022/06/19 13:51:01;;;;;;;1.00;0.90;;;38.30;33.40;;;;;;5036413;28;20466;-74
2022/06/19 13:53:33;;;;;;;1.33;0.90;;;37.90;35.80;;;;;;5036304;28;20431;-73
2022/06/19 13:56:07;;;;;;;0.70;0.70;;;38.10;34.60;;;;;;5035883;28;20824;-72
2022/06/19 13:58:48;;;;;;;0.80;0.80;;;38.40;34.20;;;;;;5035838;28;20960;-73
2022/06/19 14:01:28;;;;;;;1.37;0.83;;;38.70;34.00;;;;;;5036136;28;20536;-74
2022/06/19 14:07:35;;;;;;;1.53;0.90;;;39.10;32.50;;;;;;5036112;28;20582;-74
2022/06/19 14:10:13;;;;;;;1.00;1.00;;;39.30;33.30;;;;;;5033205;28;20212;-74
2022/06/19 14:12:46;;;;;;;1.00;0.90;;;39.50;32.70;;;;;;5036035;28;20223;-74
2022/06/19 14:15:21;;;;;;;1.98;1.02;;;39.50;32.30;;;;;;5035899;28;20266;-73
2022/06/19 14:17:57;;;;;;;1.23;0.90;;;39.70;32.90;;;;;;5035886;28;20188;-73
2022/06/19 14:20:32;;;;;;;1.05;1.00;;;39.70;32.30;;;;;;5035807;28;20192;-73
2022/06/19 14:23:08;;;;;;;0.90;0.80;;;39.80;31.60;;;;;;5035847;28;20195;-74
2022/06/19 14:25:43;;;;;;;1.30;1.00;;;39.90;34.20;;;;;;5035747;28;20217;-73
2022/06/19 14:28:20;;;;;;;1.20;0.90;;;40.00;31.80;;;;;;5035749;28;20195;-73
2022/06/19 14:30:50;;;;;;;1.20;1.05;;;39.70;31.00;;;;;;5034833;28;20724;-74
2022/06/19 14:33:42;;;;;;;1.20;0.80;;;39.50;32.30;;;;;;5035593;28;20208;-73
2022/06/19 14:36:13;;;;;;;1.03;0.97;;;38.90;31.50;;;;;;5035477;28;20974;-73
2022/06/19 14:38:40;;;;;;;1.07;0.90;;;39.10;32.50;;;;;;5035157;28;20838;-73
2022/06/19 14:41:10;;;;;;;0.80;0.80;;;39.20;32.80;;;;;;5035539;28;20232;-73
2022/06/19 14:43:57;;;;;;;1.00;0.97;;;39.30;31.70;;;;;;5035818;28;20279;-73
2022/06/19 14:46:51;;;;;;;1.20;1.02;;;39.30;33.00;;;;;;5035418;28;20418;-74
2022/06/19 14:49:54;;;;;;;1.60;1.10;;;39.60;32.90;;;;;;5035314;28;20275;-74
2022/06/19 14:52:44;;;;;;;0.88;0.88;;;39.70;31.10;;;;;;5035171;28;20285;-74
2022/06/19 14:55:21;;;;;;;0.80;0.80;;;39.70;31.10;;;;;;5034809;28;20254;-73
2022/06/19 14:57:50;;;;;;;1.10;0.90;;;39.50;32.10;;;;;;5034791;28;20605;-73
2022/06/19 15:00:27;;;;;;;0.80;0.80;;;39.50;32.30;;;;;;5035257;28;20208;-73
2022/06/19 15:02:59;;;;;;;1.43;0.80;;;39.30;31.70;;;;;;5034907;28;20564;-74
2022/06/19 15:05:29;;;;;;;1.35;1.10;;;39.40;32.10;;;;;;5034972;28;20185;-73
2022/06/19 15:08:01;;;;;;;1.10;1.00;;;39.40;31.50;;;;;;5034991;28;20189;-74
2022/06/19 15:10:33;;;;;;;1.30;0.85;;;39.30;31.50;;;;;;5034808;28;20192;-73
2022/06/19 15:13:15;;;;;;;1.00;0.90;;;39.40;32.00;;;;;;5034901;28;20216;-72
2022/06/19 15:15:46;;;;;;;0.80;0.70;;;39.40;31.90;;;;;;5059288;23;20231;-70
2022/06/19 15:18:21;;;;;;;0.90;0.90;;;39.70;32.20;;;;;;5034755;28;20275;-70
2022/06/19 15:21:08;;;;;;;1.00;1.00;;;39.90;31.70;;;;;;5034246;28;20536;-70
2022/06/19 15:23:44;;;;;;;0.85;0.85;;;39.80;31.10;;;;;;5034523;28;20250;-71
2022/06/19 15:26:34;;;;;;;1.48;1.10;;;39.70;31.00;;;;;;5014775;28;20189;-71
2022/06/19 15:29:37;;;;;;;1.45;1.00;;;39.70;31.50;;;;;;5014419;28;20645;-70
2022/06/19 15:32:58;;;;;;;0.70;0.70;;;39.70;32.00;;;;;;5009218;28;20336;-70
2022/06/19 15:36:00;;;;;;;1.17;0.90;;;39.50;32.50;;;;;;5014455;28;20307;-70
2022/06/19 15:39:17;;;;;;;2.78;1.10;;;39.70;31.40;;;;;;5014534;28;20192;-71
2022/06/19 15:42:02;;;;;;;1.15;1.00;;;39.50;30.50;;;;;;5013731;28;20215;-70
2022/06/19 15:45:00;;;;;;;1.45;0.90;;;39.50;31.90;;;;;;5014367;28;20298;-71
2022/06/19 15:48:02;;;;;;;0.80;0.80;;;39.60;31.20;;;;;;5013995;28;20579;-70
2022/06/19 15:50:33;;;;;;;0.90;0.90;;;39.30;30.90;;;;;;5001487;28;20228;-70
2022/06/19 15:53:02;;;;;;;1.03;0.93;;;39.30;32.10;;;;;;5014253;28;20189;-70
2022/06/19 15:55:36;;;;;;;1.37;0.90;;;39.10;31.30;;;;;;5014034;28;20534;-71
2022/06/19 15:58:15;;;;;;;2.50;0.80;;;39.00;30.40;;;;;;5014322;28;20188;-70
2022/06/19 16:00:45;;;;;;;1.20;1.10;;;38.60;31.50;;;;;;5014336;28;20498;-71
2022/06/19 16:03:20;;;;;;;1.03;0.93;;;38.50;31.20;;;;;;5013864;28;20450;-71
2022/06/19 16:05:48;;;;;;;1.53;1.00;;;38.10;32.20;;;;;;5014061;28;20536;-70
2022/06/19 16:08:19;;;;;;;1.07;0.97;;;38.20;33.70;;;;;;5014030;28;20447;-71
2022/06/19 16:10:53;;;;;;;1.43;0.97;;;38.30;32.30;;;;;;5014154;28;20495;-70
2022/06/19 16:13:25;;;;;;;1.17;0.90;;;38.20;32.30;;;;;;5014019;28;20432;-70
2022/06/19 16:16:17;;;;;;;0.80;0.80;;;37.80;32.10;;;;;;5013692;28;20488;-71
2022/06/19 16:19:00;;;;;;;1.40;1.10;;;37.50;33.10;;;;;;5014015;28;20522;-71
2022/06/19 16:21:29;;;;;;;2.27;1.00;;;37.70;32.40;;;;;;5013994;28;20494;-71
2022/06/19 16:23:56;;;;;;;1.30;1.00;;;37.90;33.30;;;;;;5013923;28;20448;-72
2022/06/19 16:26:26;;;;;;;1.20;1.10;;;38.00;31.80;;;;;;5013835;28;20443;-70
2022/06/19 16:28:54;;;;;;;1.03;0.93;;;37.80;33.40;;;;;;5013868;28;20539;-70
2022/06/19 16:31:24;;;;;;;1.63;1.53;;;37.40;32.60;;;;;;5013838;28;20451;-70